Time;durP1;ratioP1;P1;durP2;ratioP2;P2;SDS_P1;SDS_P2;PMS_P1;PMS_P2;Temp;Humidity;BMP_temperature;BMP_pressure;BME280_temperature;BME280_humidity;BME280_pressure;Samples;Min_cycle;Max_cycle;Signal;HPM_P1;HPM_P2
2022/07/11 00:01:42;;;;;;;;;;;22.70;54.70;;;;;;5013824;28;19936;-64
2022/07/11 00:04:07;;;;;;;;;;;22.70;54.70;;;;;;5013543;28;19917;-65
2022/07/11 00:06:33;;;;;;;;;;;22.70;54.90;;;;;;5013719;28;20007;-60
2022/07/11 00:08:58;;;;;;;;;;;22.60;55.20;;;;;;5013408;28;19960;-59
2022/07/11 00:11:24;;;;;;;;;;;22.50;55.40;;;;;;5013244;28;19914;-62
2022/07/11 00:13:50;;;;;;;;;;;22.50;55.60;;;;;;5013393;28;19996;-64
2022/07/11 00:16:15;;;;;;;;;;;22.40;55.80;;;;;;5013481;28;20009;-65
2022/07/11 00:18:41;;;;;;;;;;;22.30;55.80;;;;;;5013273;28;20481;-61
2022/07/11 00:21:07;;;;;;;;;;;22.20;56.20;;;;;;5013248;28;20373;-69
2022/07/11 00:23:33;;;;;;;;;;;22.20;56.50;;;;;;5013165;28;20362;-68
2022/07/11 00:25:58;;;;;;;;;;;22.20;56.30;;;;;;5013569;28;19910;-68
2022/07/11 00:28:24;;;;;;;;;;;22.20;56.30;;;;;;5013028;28;19918;-66
2022/07/11 00:30:50;;;;;;;;;;;22.30;56.10;;;;;;5013223;28;19917;-66
2022/07/11 00:33:15;;;;;;;;;;;22.10;56.00;;;;;;5012910;28;19916;-62
2022/07/11 00:35:41;;;;;;;;;;;22.20;56.70;;;;;;5012868;28;19913;-64
2022/07/11 00:38:06;;;;;;;;;;;22.20;56.10;;;;;;5012974;28;20289;-66
2022/07/11 00:40:32;;;;;;;;;;;22.20;56.10;;;;;;5012393;28;20258;-59
2022/07/11 00:42:57;;;;;;;;;;;22.00;57.10;;;;;;5012742;28;20293;-60
2022/07/11 00:45:23;;;;;;;;;;;22.00;56.60;;;;;;5012707;28;20052;-60
2022/07/11 00:47:48;;;;;;;;;;;22.00;56.50;;;;;;5012949;28;19940;-60
2022/07/11 00:50:14;;;;;;;;;;;21.90;57.00;;;;;;5012720;28;20382;-60
2022/07/11 00:52:41;;;;;;;;;;;22.00;56.90;;;;;;5013014;28;19979;-61
2022/07/11 00:55:06;;;;;;;;;;;22.10;56.70;;;;;;5012561;28;20320;-59
2022/07/11 00:57:33;;;;;;;;;;;22.30;56.10;;;;;;5012716;28;19915;-62
2022/07/11 00:59:59;;;;;;;;;;;22.20;56.20;;;;;;5012632;28;20020;-64
2022/07/11 01:02:24;;;;;;;;;;;22.20;56.00;;;;;;5012759;28;19953;-67
2022/07/11 01:04:50;;;;;;;;;;;22.20;56.20;;;;;;5012521;28;19914;-69
2022/07/11 01:07:16;;;;;;;;;;;22.00;56.20;;;;;;5012949;28;19932;-68
2022/07/11 01:09:41;;;;;;;;;;;22.10;56.20;;;;;;5011982;28;19926;-69
2022/07/11 01:12:07;;;;;;;;;;;21.90;56.50;;;;;;5012364;28;19913;-69
2022/07/11 01:14:33;;;;;;;;;;;21.90;56.60;;;;;;5012537;28;19909;-68
2022/07/11 01:16:58;;;;;;;;;;;21.90;56.80;;;;;;5012280;28;20004;-69
2022/07/11 01:19:24;;;;;;;;;;;21.80;56.90;;;;;;5012265;28;20019;-69
2022/07/11 01:21:50;;;;;;;;;;;21.90;56.80;;;;;;5012210;28;19913;-68
2022/07/11 01:24:15;;;;;;;;;;;21.90;56.90;;;;;;5012157;28;19945;-68
2022/07/11 01:26:42;;;;;;;;;;;21.90;56.40;;;;;;5012154;28;19913;-67
2022/07/11 01:29:09;;;;;;;;;;;21.90;56.40;;;;;;5012166;28;20019;-59
2022/07/11 01:31:37;;;;;;;;;;;22.00;56.30;;;;;;5012410;28;19916;-62
2022/07/11 01:34:03;;;;;;;;;;;22.00;56.30;;;;;;5012106;28;19920;-61
2022/07/11 01:36:28;;;;;;;;;;;21.80;56.40;;;;;;5012167;28;19910;-60
2022/07/11 01:38:54;;;;;;;;;;;21.70;56.60;;;;;;5011930;28;19937;-62
2022/07/11 01:41:19;;;;;;;;;;;21.80;56.40;;;;;;5012014;28;20385;-64
2022/07/11 01:43:45;;;;;;;;;;;21.90;56.30;;;;;;5012065;28;19909;-61
2022/07/11 01:46:10;;;;;;;;;;;21.70;56.50;;;;;;5011939;28;19952;-60
2022/07/11 01:48:36;;;;;;;;;;;21.80;56.60;;;;;;5012074;28;19914;-66
2022/07/11 01:51:02;;;;;;;;;;;21.80;56.40;;;;;;5012039;28;19910;-62
2022/07/11 01:53:27;;;;;;;;;;;21.80;56.40;;;;;;5015421;28;19909;-62
2022/07/11 01:55:53;;;;;;;;;;;21.90;56.30;;;;;;5015814;28;20356;-66
2022/07/11 01:58:18;;;;;;;;;;;21.90;56.30;;;;;;5016058;28;19976;-61
2022/07/11 02:00:44;;;;;;;;;;;21.80;56.10;;;;;;5015921;28;20004;-61
2022/07/11 02:03:10;;;;;;;;;;;21.80;56.40;;;;;;5015949;28;20457;-59
2022/07/11 02:05:38;;;;;;;;;;;21.70;56.50;;;;;;5015839;28;19956;-65
2022/07/11 02:08:13;;;;;;;;;;;21.70;56.60;;;;;;5015543;28;20380;-62
2022/07/11 02:10:40;;;;;;;;;;;21.70;56.30;;;;;;5015757;28;19928;-60
2022/07/11 02:13:06;;;;;;;;;;;21.80;56.30;;;;;;5015331;28;20324;-60
2022/07/11 02:15:32;;;;;;;;;;;21.80;56.20;;;;;;5015626;28;20040;-60
2022/07/11 02:17:57;;;;;;;;;;;21.60;56.10;;;;;;5015562;28;19964;-60
2022/07/11 02:20:23;;;;;;;;;;;21.60;56.20;;;;;;5015373;28;20012;-62
2022/07/11 02:22:49;;;;;;;;;;;21.70;56.20;;;;;;5015482;28;20007;-60
2022/07/11 02:25:15;;;;;;;;;;;21.60;56.40;;;;;;5015345;28;20377;-59
2022/07/11 02:27:41;;;;;;;;;;;21.80;56.10;;;;;;5015450;28;20388;-59
2022/07/11 02:30:07;;;;;;;;;;;21.90;55.80;;;;;;5015053;28;20009;-59
2022/07/11 02:32:32;;;;;;;;;;;21.90;55.60;;;;;;5015706;28;19920;-59
2022/07/11 02:34:58;;;;;;;;;;;21.90;55.40;;;;;;5015159;28;20420;-60
2022/07/11 02:37:23;;;;;;;;;;;21.80;55.70;;;;;;5015500;28;19914;-61
2022/07/11 02:39:49;;;;;;;;;;;21.80;55.80;;;;;;5015054;28;20516;-60
2022/07/11 02:42:15;;;;;;;;;;;21.80;55.80;;;;;;5015017;28;19909;-61
2022/07/11 02:44:40;;;;;;;;;;;21.80;55.80;;;;;;5015051;28;19910;-61
2022/07/11 02:47:06;;;;;;;;;;;21.70;56.00;;;;;;5015031;28;19920;-60
2022/07/11 02:49:32;;;;;;;;;;;21.70;56.20;;;;;;5014937;28;19909;-59
2022/07/11 02:51:58;;;;;;;;;;;21.70;56.20;;;;;;5015081;28;20655;-59
2022/07/11 02:54:24;;;;;;;;;;;21.60;56.30;;;;;;5014674;28;19914;-59
2022/07/11 02:56:49;;;;;;;;;;;21.60;56.50;;;;;;5014891;28;19914;-61
2022/07/11 02:59:15;;;;;;;;;;;21.50;56.50;;;;;;5014587;28;19959;-59
2022/07/11 03:01:41;;;;;;;;;;;21.40;56.90;;;;;;5014799;28;19914;-61
2022/07/11 03:04:07;;;;;;;;;;;21.50;56.60;;;;;;5014362;28;20321;-63
2022/07/11 03:06:33;;;;;;;;;;;21.40;57.00;;;;;;5014794;28;19917;-64
2022/07/11 03:08:58;;;;;;;;;;;21.30;57.10;;;;;;5014559;28;20374;-67
2022/07/11 03:11:24;;;;;;;;;;;21.40;57.20;;;;;;5014546;28;20366;-68
2022/07/11 03:13:49;;;;;;;;;;;21.40;57.00;;;;;;5014565;28;20422;-69
2022/07/11 03:16:15;;;;;;;;;;;21.30;57.10;;;;;;5014349;28;19932;-69
2022/07/11 03:18:40;;;;;;;;;;;21.30;56.90;;;;;;5014319;28;19916;-69
2022/07/11 03:21:06;;;;;;;;;;;21.30;57.00;;;;;;5014296;28;19975;-67
2022/07/11 03:23:31;;;;;;;;;;;21.50;56.70;;;;;;5014265;28;19910;-70
2022/07/11 03:25:57;;;;;;;;;;;21.40;56.60;;;;;;5014144;28;19917;-70
2022/07/11 03:28:22;;;;;;;;;;;21.50;56.30;;;;;;5014187;28;20341;-69
2022/07/11 03:30:48;;;;;;;;;;;21.50;56.20;;;;;;5014198;28;19909;-71
2022/07/11 03:33:13;;;;;;;;;;;21.50;56.30;;;;;;5014093;28;20289;-69
2022/07/11 03:35:41;;;;;;;;;;;21.50;56.10;;;;;;5013920;28;19909;-67
2022/07/11 03:38:08;;;;;;;;;;;21.40;55.90;;;;;;5014057;28;20415;-68
2022/07/11 03:40:34;;;;;;;;;;;21.40;56.00;;;;;;5013844;28;19932;-68
2022/07/11 03:42:59;;;;;;;;;;;21.30;56.20;;;;;;5013908;28;19913;-63
2022/07/11 03:45:25;;;;;;;;;;;21.40;56.20;;;;;;5013731;28;19920;-60
2022/07/11 03:47:50;;;;;;;;;;;21.50;55.90;;;;;;5013966;28;19909;-60
2022/07/11 03:50:16;;;;;;;;;;;21.30;56.00;;;;;;5013762;28;19917;-59
2022/07/11 03:52:42;;;;;;;;;;;21.30;56.10;;;;;;5013646;28;19996;-62
2022/07/11 03:55:08;;;;;;;;;;;21.20;56.50;;;;;;5013903;28;19932;-69
2022/07/11 03:57:33;;;;;;;;;;;21.20;56.30;;;;;;5013558;28;19960;-69
2022/07/11 04:00:07;;;;;;;;;;;21.30;56.10;;;;;;5013674;28;20392;-67
2022/07/11 04:02:32;;;;;;;;;;;21.10;56.50;;;;;;5013505;28;19987;-68
2022/07/11 04:04:58;;;;;;;;;;;21.10;56.30;;;;;;5013455;28;19949;-61
2022/07/11 04:07:23;;;;;;;;;;;21.20;56.00;;;;;;5013608;28;19917;-69
2022/07/11 04:09:49;;;;;;;;;;;21.10;55.90;;;;;;5013267;28;20409;-64
2022/07/11 04:12:17;;;;;;;;;;;21.10;55.80;;;;;;5013877;28;19913;-61
2022/07/11 04:14:43;;;;;;;;;;;21.20;55.20;;;;;;5012894;28;19913;-61
2022/07/11 04:17:08;;;;;;;;;;;21.10;54.80;;;;;;5013135;28;19916;-60
2022/07/11 04:19:34;;;;;;;;;;;21.00;55.00;;;;;;5013217;28;19918;-68
2022/07/11 04:21:59;;;;;;;;;;;21.10;55.00;;;;;;5013157;28;19948;-62
2022/07/11 04:24:25;;;;;;;;;;;21.20;54.60;;;;;;5013288;28;19968;-61
2022/07/11 04:26:50;;;;;;;;;;;21.30;54.00;;;;;;5013185;28;20373;-62
2022/07/11 04:29:16;;;;;;;;;;;21.30;53.40;;;;;;5013010;28;20323;-64
2022/07/11 04:31:42;;;;;;;;;;;21.20;53.80;;;;;;5013044;28;19909;-63
2022/07/11 04:34:07;;;;;;;;;;;21.20;53.50;;;;;;5013128;28;20007;-59
2022/07/11 04:36:33;;;;;;;;;;;21.20;53.00;;;;;;5013057;28;19995;-60
2022/07/11 04:38:58;;;;;;;;;;;21.30;52.60;;;;;;5012855;28;19935;-64
2022/07/11 04:41:24;;;;;;;;;;;21.20;52.50;;;;;;5012901;28;19921;-63
2022/07/11 04:43:49;;;;;;;;;;;21.20;52.00;;;;;;5012923;28;19917;-66
2022/07/11 04:46:15;;;;;;;;;;;21.20;51.80;;;;;;5012657;28;20015;-67
2022/07/11 04:48:41;;;;;;;;;;;21.20;51.70;;;;;;5012873;28;19919;-61
2022/07/11 04:51:06;;;;;;;;;;;21.20;51.80;;;;;;5012749;28;19909;-60
2022/07/11 04:53:35;;;;;;;;;;;21.20;51.40;;;;;;5012802;28;20387;-61
2022/07/11 04:56:01;;;;;;;;;;;21.20;50.90;;;;;;5012640;28;19952;-61
2022/07/11 04:58:26;;;;;;;;;;;21.20;50.80;;;;;;5012756;28;20026;-69
2022/07/11 05:00:52;;;;;;;;;;;21.20;50.60;;;;;;5012525;28;19987;-62
2022/07/11 05:03:19;;;;;;;;;;;21.20;50.30;;;;;;5011288;28;19960;-62
2022/07/11 05:05:45;;;;;;;;;;;21.20;49.90;;;;;;5012404;28;19917;-63
2022/07/11 05:08:10;;;;;;;;;;;21.10;50.50;;;;;;4998855;28;19917;-61
2022/07/11 05:10:36;;;;;;;;;;;20.90;50.70;;;;;;5012441;28;19925;-65
2022/07/11 05:13:05;;;;;;;;;;;21.00;50.30;;;;;;5012365;28;19996;-70
2022/07/11 05:15:30;;;;;;;;;;;21.10;50.10;;;;;;4998889;28;20378;-66
2022/07/11 05:17:56;;;;;;;;;;;21.10;50.10;;;;;;5012480;28;19956;-71
2022/07/11 05:20:21;;;;;;;;;;;21.00;49.80;;;;;;5012341;28;20374;-70
2022/07/11 05:22:47;;;;;;;;;;;21.00;50.20;;;;;;5011650;28;20366;-69
2022/07/11 05:25:13;;;;;;;;;;;21.10;49.90;;;;;;5012450;28;20007;-68
2022/07/11 05:27:38;;;;;;;;;;;21.10;50.10;;;;;;5011301;28;19909;-69
2022/07/11 05:30:04;;;;;;;;;;;21.00;49.80;;;;;;5012132;28;19924;-68
2022/07/11 05:32:30;;;;;;;;;;;21.10;50.00;;;;;;5012467;28;19914;-68
2022/07/11 05:34:58;;;;;;;;;;;21.20;49.70;;;;;;5012257;28;19916;-69
2022/07/11 05:37:23;;;;;;;;;;;21.20;49.60;;;;;;5012133;28;20016;-65
2022/07/11 05:39:50;;;;;;;;;;;21.00;50.10;;;;;;5012187;28;20024;-61
2022/07/11 05:42:16;;;;;;;;;;;21.10;50.00;;;;;;5012077;28;19914;-65
2022/07/11 05:44:41;;;;;;;;;;;21.10;49.80;;;;;;5012390;28;19932;-63
2022/07/11 05:47:07;;;;;;;;;;;20.90;49.80;;;;;;5012677;28;19909;-60
2022/07/11 05:49:33;;;;;;;;;;;21.00;50.20;;;;;;5012795;28;19913;-63
2022/07/11 05:51:59;;;;;;;;;;;21.10;49.90;;;;;;5012740;28;19920;-60
2022/07/11 05:54:24;;;;;;;;;;;21.20;49.50;;;;;;5012115;28;19917;-59
2022/07/11 05:56:50;;;;;;;;;;;21.40;49.00;;;;;;5012038;28;19910;-59
2022/07/11 05:59:15;;;;;;;;;;;21.30;48.70;;;;;;5011712;28;20322;-65
2022/07/11 06:01:41;;;;;;;;;;;21.10;49.40;;;;;;5012780;28;20262;-64
2022/07/11 06:04:07;;;;;;;;;;;21.10;49.40;;;;;;5011852;28;20013;-66
2022/07/11 06:06:32;;;;;;;;;;;21.00;49.50;;;;;;5012018;28;19967;-63
2022/07/11 06:08:58;;;;;;;;;;;21.00;49.90;;;;;;5011751;28;19925;-59
2022/07/11 06:11:24;;;;;;;;;;;20.90;50.20;;;;;;5011827;28;20427;-67
2022/07/11 06:13:49;;;;;;;;;;;20.90;50.40;;;;;;5011424;28;20353;-61
2022/07/11 06:16:15;;;;;;;;;;;21.00;50.20;;;;;;5011634;28;19910;-65
2022/07/11 06:18:41;;;;;;;;;;;21.20;49.80;;;;;;5011712;28;19987;-64
2022/07/11 06:21:07;;;;;;;;;;;21.50;49.10;;;;;;5011838;28;19959;-65
2022/07/11 06:23:34;;;;;;;;;;;21.80;48.10;;;;;;5011415;28;20420;-65
2022/07/11 06:26:00;;;;;;;;;;;22.30;47.20;;;;;;5011481;28;20358;-65
2022/07/11 06:28:26;;;;;;;;;;;22.70;46.20;;;;;;5011582;28;19921;-64
2022/07/11 06:30:52;;;;;;;;;;;22.90;45.20;;;;;;5011991;28;19909;-63
2022/07/11 06:33:21;;;;;;;;;;;23.20;44.50;;;;;;5011631;28;20019;-65
2022/07/11 06:35:47;;;;;;;;;;;23.40;43.90;;;;;;5011015;28;19909;-70
2022/07/11 06:38:14;;;;;;;;;;;23.50;43.40;;;;;;5011890;28;19915;-70
2022/07/11 06:40:41;;;;;;;;;;;23.50;44.00;;;;;;5013994;28;20258;-68
2022/07/11 06:43:07;;;;;;;;;;;23.50;43.70;;;;;;5013793;28;20374;-66
2022/07/11 06:45:33;;;;;;;;;;;23.30;44.30;;;;;;5011031;28;19999;-65
2022/07/11 06:47:59;;;;;;;;;;;23.40;43.70;;;;;;5001351;28;20377;-62
2022/07/11 06:50:24;;;;;;;;;;;23.60;43.80;;;;;;5002095;28;19910;-65
2022/07/11 06:52:50;;;;;;;;;;;23.70;42.90;;;;;;5001463;28;19914;-64
2022/07/11 06:55:16;;;;;;;;;;;23.80;42.30;;;;;;5011181;28;19909;-61
2022/07/11 06:57:41;;;;;;;;;;;23.80;42.00;;;;;;5014278;28;20309;-60
2022/07/11 07:00:08;;;;;;;;;;;23.70;42.40;;;;;;5014798;28;19928;-66
2022/07/11 07:02:33;;;;;;;;;;;23.70;42.00;;;;;;5014651;28;19913;-65
2022/07/11 07:04:59;;;;;;;;;;;23.40;42.20;;;;;;5014515;28;19996;-60
2022/07/11 07:07:25;;;;;;;;;;;23.50;43.00;;;;;;5014744;28;19909;-63
2022/07/11 07:09:52;;;;;;;;;;;23.90;42.10;;;;;;5014553;28;20374;-65
2022/07/11 07:12:17;;;;;;;;;;;23.90;42.00;;;;;;5014353;28;19913;-64
2022/07/11 07:14:43;;;;;;;;;;;23.70;42.10;;;;;;5013601;28;19975;-61
2022/07/11 07:17:08;;;;;;;;;;;23.80;41.80;;;;;;5013527;28;19917;-61
2022/07/11 07:19:34;;;;;;;;;;;23.90;41.70;;;;;;5013272;28;20026;-62
2022/07/11 07:22:00;;;;;;;;;;;23.70;41.90;;;;;;5013339;28;19924;-62
2022/07/11 07:24:25;;;;;;;;;;;23.70;42.30;;;;;;5013661;28;19914;-59
2022/07/11 07:26:51;;;;;;;;;;;23.80;41.70;;;;;;5014131;28;19913;-60
2022/07/11 07:29:16;;;;;;;;;;;23.90;42.10;;;;;;5014169;28;19913;-58
2022/07/11 07:31:42;;;;;;;;;;;23.90;41.10;;;;;;5014433;28;19913;-60
2022/07/11 07:34:10;;;;;;;;;;;23.60;41.30;;;;;;5014260;28;19920;-59
2022/07/11 07:36:36;;;;;;;;;;;23.80;41.30;;;;;;5014334;28;19909;-59
2022/07/11 07:39:01;;;;;;;;;;;23.80;41.50;;;;;;5013944;28;19910;-61
2022/07/11 07:41:27;;;;;;;;;;;24.10;41.30;;;;;;5013768;28;20374;-60
2022/07/11 07:43:53;;;;;;;;;;;24.20;41.10;;;;;;5013729;28;19972;-61
2022/07/11 07:46:18;;;;;;;;;;;24.20;40.50;;;;;;5011460;28;19914;-60
2022/07/11 07:48:44;;;;;;;;;;;24.30;40.60;;;;;;5011596;28;19914;-61
2022/07/11 07:51:10;;;;;;;;;;;24.40;40.40;;;;;;5010965;28;20028;-59
2022/07/11 07:53:36;;;;;;;;;;;24.60;40.10;;;;;;5011746;28;19910;-60
2022/07/11 07:56:02;;;;;;;;;;;24.70;39.60;;;;;;5011263;28;20388;-58
2022/07/11 07:58:28;;;;;;;;;;;24.70;40.10;;;;;;5011573;28;19941;-59
2022/07/11 08:03:37;;;;;;;;;;;24.80;39.10;;;;;;5012213;28;19941;-60
2022/07/11 08:06:03;;;;;;;;;;;24.90;39.20;;;;;;5012965;28;19917;-58
2022/07/11 08:08:29;;;;;;;;;;;25.00;39.30;;;;;;5013701;28;19909;-58
2022/07/11 08:10:55;;;;;;;;;;;25.10;39.70;;;;;;5014050;28;20019;-59
2022/07/11 08:13:21;;;;;;;;;;;25.10;39.60;;;;;;5013262;28;19919;-59
2022/07/11 08:15:47;;;;;;;;;;;25.10;39.80;;;;;;5013113;28;20289;-58
2022/07/11 08:18:12;;;;;;;;;;;25.00;39.70;;;;;;5012885;28;20408;-59
2022/07/11 08:20:38;;;;;;;;;;;25.10;39.30;;;;;;5013121;28;19950;-58
2022/07/11 08:23:04;;;;;;;;;;;25.10;39.30;;;;;;5013009;28;19917;-56
2022/07/11 08:25:32;;;;;;;;;;;25.00;39.90;;;;;;5013068;28;20440;-63
2022/07/11 08:27:58;;;;;;;;;;;24.90;39.90;;;;;;5013117;28;19910;-63
2022/07/11 08:30:25;;;;;;;;;;;24.80;40.00;;;;;;5012968;28;19924;-63
2022/07/11 08:32:51;;;;;;;;;;;24.80;40.40;;;;;;5013035;28;19960;-65
2022/07/11 08:35:16;;;;;;;;;;;24.80;40.60;;;;;;5012924;28;20309;-64
2022/07/11 08:37:43;;;;;;;;;;;24.80;40.80;;;;;;5013070;28;19913;-65
2022/07/11 08:40:08;;;;;;;;;;;24.70;40.70;;;;;;5013115;28;20391;-61
2022/07/11 08:42:39;;;;;;;;;;;24.70;41.20;;;;;;5012795;28;20012;-62
2022/07/11 08:45:05;;;;;;;;;;;24.80;41.20;;;;;;5012965;28;20362;-61
2022/07/11 08:47:31;;;;;;;;;;;25.00;41.00;;;;;;5012924;28;19921;-62
2022/07/11 08:49:57;;;;;;;;;;;25.20;40.70;;;;;;5012834;28;19917;-64
2022/07/11 08:52:23;;;;;;;;;;;25.10;40.70;;;;;;5012553;28;20281;-65
2022/07/11 08:54:49;;;;;;;;;;;25.10;40.90;;;;;;5012669;28;19909;-61
2022/07/11 08:57:15;;;;;;;;;;;25.20;40.70;;;;;;5012639;28;20352;-63
2022/07/11 08:59:42;;;;;;;;;;;25.20;41.10;;;;;;5012589;28;19968;-64
2022/07/11 09:02:08;;;;;;;;;;;25.30;40.60;;;;;;5012392;28;20020;-64
2022/07/11 09:04:34;;;;;;;;;;;25.30;40.10;;;;;;5012410;28;19917;-62
2022/07/11 09:07:01;;;;;;;;;;;25.20;40.10;;;;;;5012764;28;19920;-61
2022/07/11 09:09:27;;;;;;;;;;;25.30;40.00;;;;;;5012392;28;20310;-64
2022/07/11 09:11:54;;;;;;;;;;;25.40;40.00;;;;;;5012587;28;19913;-64
2022/07/11 09:14:20;;;;;;;;;;;25.50;40.00;;;;;;5012540;28;20008;-63
2022/07/11 09:16:59;;;;;;;;;;;25.50;39.80;;;;;;5012290;28;19913;-61
2022/07/11 09:19:26;;;;;;;;;;;25.50;39.50;;;;;;5012303;28;19917;-61
2022/07/11 09:27:40;;;;;;;;;;;25.90;39.40;;;;;;5012517;28;19941;-61
2022/07/11 09:30:19;;;;;;;;;;;26.00;39.30;;;;;;5012217;28;20282;-62
2022/07/11 09:32:55;;;;;;;;;;;26.10;38.90;;;;;;5012323;28;20000;-64
2022/07/11 09:35:25;;;;;;;;;;;26.10;38.60;;;;;;5011872;28;19996;-62
2022/07/11 09:37:51;;;;;;;;;;;26.10;38.10;;;;;;5012231;28;20349;-62
2022/07/11 09:40:17;;;;;;;;;;;26.10;38.40;;;;;;5012009;28;19917;-61
2022/07/11 09:42:50;;;;;;;;;;;26.20;38.20;;;;;;5012242;28;19914;-62
2022/07/11 09:45:16;;;;;;;;;;;26.10;38.30;;;;;;5012161;28;19964;-62
2022/07/11 09:47:52;;;;;;;;;;;26.00;38.40;;;;;;5012025;28;20463;-61
2022/07/11 09:50:21;;;;;;;;;;;25.90;38.70;;;;;;5012180;28;19909;-63
2022/07/11 09:52:59;;;;;;;;;;;25.90;38.80;;;;;;5011843;28;19979;-61
2022/07/11 09:55:25;;;;;;;;;;;26.00;38.60;;;;;;5012202;28;20051;-61
2022/07/11 09:57:51;;;;;;;;;;;26.00;38.60;;;;;;5012152;28;19910;-62
2022/07/11 10:00:17;;;;;;;;;;;26.00;38.70;;;;;;5012070;28;19944;-63
2022/07/11 10:02:43;;;;;;;;;;;26.10;38.50;;;;;;5011695;28;19917;-65
2022/07/11 10:05:08;;;;;;;;;;;26.10;38.60;;;;;;5011913;28;20373;-60
2022/07/11 10:07:34;;;;;;;;;;;26.10;38.50;;;;;;5011882;28;20365;-60
2022/07/11 10:10:00;;;;;;;;;;;26.20;38.60;;;;;;5012009;28;19925;-60
2022/07/11 10:12:27;;;;;;;;;;;26.30;38.70;;;;;;5011910;28;19941;-61
2022/07/11 10:14:53;;;;;;;;;;;26.40;38.20;;;;;;5015681;28;19964;-60
2022/07/11 10:17:21;;;;;;;;;;;26.30;38.20;;;;;;5015747;28;20301;-61
2022/07/11 10:19:59;;;;;;;;;;;26.20;38.50;;;;;;5015329;28;19917;-60
2022/07/11 10:22:24;;;;;;;;;;;26.20;38.60;;;;;;5003062;28;20381;-60
2022/07/11 10:24:56;;;;;;;;;;;26.10;39.10;;;;;;5015610;28;19910;-60
2022/07/11 10:27:42;;;;;;;;;;;26.10;38.60;;;;;;5015596;28;19917;-60
2022/07/11 10:30:07;;;;;;;;;;;26.20;38.90;;;;;;5007682;28;19913;-62
2022/07/11 10:32:53;;;;;;;;;;;26.20;38.70;;;;;;5015404;28;19913;-59
2022/07/11 10:35:20;;;;;;;;;;;26.30;38.10;;;;;;5014806;28;20277;-62
2022/07/11 10:37:49;;;;;;;;;;;26.20;38.40;;;;;;5015931;28;19910;-62
2022/07/11 10:40:14;;;;;;;;;;;26.30;38.50;;;;;;5015115;28;19923;-62
2022/07/11 10:42:41;;;;;;;;;;;26.30;38.60;;;;;;5015178;28;19914;-63
2022/07/11 10:45:11;;;;;;;;;;;26.40;38.60;;;;;;5015021;28;19913;-61
2022/07/11 10:47:43;;;;;;;;;;;26.40;38.50;;;;;;5014966;28;20306;-62
2022/07/11 10:50:21;;;;;;;;;;;26.50;38.70;;;;;;5015061;28;19945;-60
2022/07/11 10:52:48;;;;;;;;;;;26.60;38.40;;;;;;5014858;28;20433;-64
2022/07/11 10:55:22;;;;;;;;;;;26.50;39.00;;;;;;5014671;28;20329;-62
2022/07/11 10:57:49;;;;;;;;;;;26.50;39.00;;;;;;5014641;28;19909;-66
2022/07/11 11:00:19;;;;;;;;;;;26.50;38.60;;;;;;5014723;28;19948;-63
2022/07/11 11:03:01;;;;;;;;;;;26.60;38.00;;;;;;5014647;28;20012;-65
2022/07/11 11:05:44;;;;;;;;;;;26.70;37.80;;;;;;5014409;28;20396;-64
2022/07/11 11:08:28;;;;;;;;;;;26.70;37.60;;;;;;5011885;28;19909;-64
2022/07/11 11:10:54;;;;;;;;;;;26.80;37.60;;;;;;5013907;28;19925;-64
2022/07/11 11:13:20;;;;;;;;;;;26.80;37.90;;;;;;5013848;28;19917;-65
2022/07/11 11:15:53;;;;;;;;;;;26.80;37.90;;;;;;5013929;28;19910;-66
2022/07/11 11:18:25;;;;;;;;;;;26.80;38.00;;;;;;5001297;28;20320;-66
2022/07/11 11:21:11;;;;;;;;;;;26.90;37.90;;;;;;5013825;28;20401;-66
2022/07/11 11:23:37;;;;;;;;;;;27.00;37.50;;;;;;5006267;28;19914;-66
2022/07/11 11:26:06;;;;;;;;;;;27.00;39.40;;;;;;5013949;28;19992;-68
2022/07/11 11:28:32;;;;;;;;;;;27.00;40.40;;;;;;5001252;28;19944;-68
2022/07/11 11:30:58;;;;;;;;;;;27.00;39.30;;;;;;5013704;28;19909;-72
2022/07/11 11:33:28;;;;;;;;;;;26.90;40.60;;;;;;5013176;28;19964;-69
2022/07/11 11:36:04;;;;;;;;;;;26.90;40.10;;;;;;5013701;28;20263;-67
2022/07/11 11:38:32;;;;;;;;;;;27.00;39.30;;;;;;5013459;28;20265;-66
2022/07/11 11:40:58;;;;;;;;;;;26.90;39.80;;;;;;5012883;28;19917;-69
2022/07/11 11:43:24;;;;;;;;;;;26.90;38.80;;;;;;4996951;28;19913;-65
2022/07/11 11:45:50;;;;;;;;;;;26.90;38.40;;;;;;5003929;28;19918;-69
2022/07/11 11:48:29;;;;;;;;;;;26.90;38.30;;;;;;5015841;28;19921;-64
2022/07/11 11:51:08;;;;;;;;;;;26.90;38.90;;;;;;5014617;28;20317;-63
2022/07/11 11:53:43;;;;;;;;;;;26.90;38.50;;;;;;5013380;28;20429;-66
2022/07/11 11:56:21;;;;;;;;;;;27.00;37.90;;;;;;5003964;28;20005;-66
2022/07/11 11:58:48;;;;;;;;;;;27.00;38.20;;;;;;5009847;28;20251;-63
2022/07/11 12:01:14;;;;;;;;;;;26.90;37.90;;;;;;5012897;28;19921;-65
2022/07/11 12:03:57;;;;;;;;;;;27.00;37.60;;;;;;5012510;28;19916;-63
2022/07/11 12:06:23;;;;;;;;;;;27.00;37.90;;;;;;5012543;28;20382;-62
2022/07/11 12:08:49;;;;;;;;;;;27.00;37.30;;;;;;5012055;28;19930;-65
2022/07/11 12:11:15;;;;;;;;;;;26.90;36.80;;;;;;5012842;28;19972;-64
2022/07/11 12:13:41;;;;;;;;;;;27.00;37.20;;;;;;5012900;28;19910;-61
2022/07/11 12:19:02;;;;;;;;;;;27.00;36.60;;;;;;5012270;28;20378;-65
2022/07/11 12:21:29;;;;;;;;;;;27.00;37.20;;;;;;4999883;28;20337;-63
2022/07/11 12:23:56;;;;;;;;;;;27.00;37.10;;;;;;5011707;28;19961;-67
2022/07/11 12:26:22;;;;;;;;;;;27.00;37.00;;;;;;5011009;28;19913;-62
2022/07/11 12:29:07;;;;;;;;;;;27.00;36.80;;;;;;5011879;28;19913;-65
2022/07/11 12:31:42;;;;;;;;;;;27.00;36.80;;;;;;5011825;28;19913;-67
2022/07/11 12:34:07;;;;;;;;;;;27.00;37.00;;;;;;5009597;28;19910;-64
2022/07/11 12:36:33;;;;;;;;;;;27.00;36.40;;;;;;5011370;28;19933;-64
2022/07/11 12:38:58;;;;;;;;;;;27.00;36.90;;;;;;5011151;28;19920;-64
2022/07/11 12:41:24;;;;;;;;;;;27.00;37.00;;;;;;5013317;28;20296;-63
2022/07/11 12:46:36;;;;;;;;;;;27.00;36.70;;;;;;5014535;28;19967;-64
2022/07/11 12:49:02;;;;;;;;;;;27.00;37.10;;;;;;5013866;28;19921;-67
2022/07/11 12:51:34;;;;;;;;;;;27.00;35.90;;;;;;5013704;28;19916;-64
2022/07/11 12:54:04;;;;;;;;;;;27.00;36.40;;;;;;5014311;28;20472;-65
2022/07/11 12:56:30;;;;;;;;;;;27.00;36.40;;;;;;5014809;28;19914;-66
2022/07/11 12:58:55;;;;;;;;;;;26.90;35.90;;;;;;5014738;28;19913;-68
2022/07/11 13:01:21;;;;;;;;;;;26.90;36.70;;;;;;5014988;28;19917;-70
2022/07/11 13:03:46;;;;;;;;;;;26.90;37.00;;;;;;5016125;28;19921;-66
2022/07/11 13:06:12;;;;;;;;;;;26.90;36.90;;;;;;5018829;28;19910;-68
2022/07/11 13:08:46;;;;;;;;;;;27.00;36.70;;;;;;5018169;28;19927;-66
2022/07/11 13:11:13;;;;;;;;;;;27.00;37.20;;;;;;5017070;28;19928;-67
2022/07/11 13:13:39;;;;;;;;;;;26.90;37.70;;;;;;5014374;28;19924;-69
2022/07/11 13:16:05;;;;;;;;;;;27.00;37.30;;;;;;5010632;28;20428;-66
2022/07/11 13:18:31;;;;;;;;;;;27.00;36.90;;;;;;5013869;28;19917;-69
2022/07/11 13:20:57;;;;;;;;;;;26.90;37.10;;;;;;5014901;28;19960;-68
2022/07/11 13:23:22;;;;;;;;;;;26.90;37.70;;;;;;5013599;28;19953;-66
2022/07/11 13:25:48;;;;;;;;;;;26.90;37.70;;;;;;5015020;28;19914;-67
2022/07/11 13:28:14;;;;;;;;;;;26.90;37.80;;;;;;5015182;28;19963;-69
2022/07/11 13:30:40;;;;;;;;;;;26.90;38.00;;;;;;5013254;28;19995;-68
2022/07/11 13:33:06;;;;;;;;;;;26.90;38.00;;;;;;5013583;28;19913;-68
2022/07/11 13:35:31;;;;;;;;;;;26.90;38.60;;;;;;5010843;28;20000;-69
2022/07/11 13:37:57;;;;;;;;;;;26.90;38.00;;;;;;5010967;28;20368;-67
2022/07/11 13:40:23;;;;;;;;;;;26.90;38.50;;;;;;5010345;28;19928;-62
2022/07/11 13:42:49;;;;;;;;;;;26.90;38.20;;;;;;5010499;28;20420;-66
2022/07/11 13:45:16;;;;;;;;;;;26.90;39.00;;;;;;5010474;28;19913;-65
2022/07/11 13:47:42;;;;;;;;;;;27.00;39.70;;;;;;5008947;28;19929;-68
2022/07/11 13:50:08;;;;;;;;;;;27.00;40.20;;;;;;5014432;28;19910;-62
2022/07/11 13:52:35;;;;;;;;;;;26.90;39.30;;;;;;5014494;28;19910;-71
2022/07/11 13:55:00;;;;;;;;;;;27.00;40.20;;;;;;5012110;28;20446;-68
2022/07/11 13:57:26;;;;;;;;;;;26.90;39.50;;;;;;5014132;28;19913;-63
2022/07/11 13:59:52;;;;;;;;;;;26.90;40.30;;;;;;5013475;28;19940;-63
2022/07/11 14:02:17;;;;;;;;;;;26.90;41.60;;;;;;5015463;28;19959;-64
2022/07/11 14:04:46;;;;;;;;;;;26.90;42.50;;;;;;5015241;28;19968;-67
2022/07/11 14:07:12;;;;;;;;;;;26.80;42.10;;;;;;5015617;28;19913;-75
2022/07/11 14:09:38;;;;;;;;;;;26.90;42.10;;;;;;5014126;28;20013;-69
2022/07/11 14:12:04;;;;;;;;;;;26.80;43.40;;;;;;5013344;28;19920;-70
2022/07/11 14:14:30;;;;;;;;;;;26.60;41.90;;;;;;5013764;28;20311;-76
2022/07/11 14:16:56;;;;;;;;;;;26.60;41.90;;;;;;5012150;28;20436;-73
2022/07/11 14:19:22;;;;;;;;;;;26.40;43.20;;;;;;5013593;28;19914;-63
2022/07/11 14:21:47;;;;;;;;;;;26.30;44.90;;;;;;5012397;28;20290;-68
2022/07/11 14:24:13;;;;;;;;;;;26.30;43.40;;;;;;5013555;28;19910;-64
2022/07/11 14:26:39;;;;;;;;;;;26.20;43.70;;;;;;5007101;28;19921;-65
2022/07/11 14:29:05;;;;;;;;;;;26.30;43.60;;;;;;5003200;28;19924;-66